AFL240 ULLI-UMMS
Flight info
| Callsign | AFL240 |
|---|---|
| Flight time | 1h 1m |
| Altitude | 35000 |
| Route | RUMOL T272 GILAP M856 TEGLU P26 RUHAL |
| Aircraft | A320/M-V/N |
Departure
| Time | 2026-04-30 20:19 |
|---|---|
| Airport | Pulkovo Airport (ULLI) |
Arrival
| Time | 2026-04-30 21:20 |
|---|---|
| Airport | Minsk National Airport (UMMS) |
| Time | Latitude | Longitude | Altitude | Speed | Heading |
|---|---|---|---|---|---|
| 2026-04-30 19:53 | 59.79892 | 30.26700 | 83 ft | 0 kts | 111° |
| 2026-04-30 20:09 | 59.79897 | 30.26671 | 81 ft | 4 kts | 102° |
| 2026-04-30 20:09 | 59.79884 | 30.26581 | 81 ft | 4 kts | 27° |
| 2026-04-30 20:10 | 59.79874 | 30.26572 | 83 ft | 0 kts | 16° |
| 2026-04-30 20:12 | 59.79878 | 30.26575 | 81 ft | 2 kts | 17° |
| 2026-04-30 20:12 | 59.79901 | 30.26588 | 81 ft | 5 kts | 16° |
| 2026-04-30 20:12 | 59.79952 | 30.26617 | 81 ft | 10 kts | 16° |
| 2026-04-30 20:13 | 59.80032 | 30.26664 | 81 ft | 14 kts | 17° |
| 2026-04-30 20:13 | 59.80135 | 30.26726 | 81 ft | 16 kts | 17° |
| 2026-04-30 20:13 | 59.80242 | 30.26788 | 83 ft | 12 kts | 16° |
| 2026-04-30 20:13 | 59.80315 | 30.26832 | 81 ft | 10 kts | 17° |
| 2026-04-30 20:14 | 59.80374 | 30.26872 | 82 ft | 8 kts | 31° |
| 2026-04-30 20:14 | 59.80380 | 30.26958 | 81 ft | 6 kts | 105° |
| 2026-04-30 20:14 | 59.80363 | 30.27078 | 81 ft | 13 kts | 106° |
| 2026-04-30 20:14 | 59.80328 | 30.27311 | 84 ft | 21 kts | 107° |
| 2026-04-30 20:15 | 59.80286 | 30.27600 | 80 ft | 23 kts | 106° |
| 2026-04-30 20:15 | 59.80240 | 30.27909 | 81 ft | 24 kts | 106° |
| 2026-04-30 20:15 | 59.80190 | 30.28239 | 79 ft | 26 kts | 107° |
| 2026-04-30 20:15 | 59.80138 | 30.28587 | 73 ft | 27 kts | 106° |
| 2026-04-30 20:16 | 59.80085 | 30.28949 | 71 ft | 28 kts | 107° |
| 2026-04-30 20:16 | 59.80038 | 30.29256 | 77 ft | 19 kts | 107° |
| 2026-04-30 20:16 | 59.79998 | 30.29524 | 77 ft | 21 kts | 107° |
| 2026-04-30 20:16 | 59.79964 | 30.29747 | 76 ft | 12 kts | 107° |
| 2026-04-30 20:17 | 59.79941 | 30.29902 | 76 ft | 11 kts | 106° |
| 2026-04-30 20:17 | 59.79947 | 30.30036 | 72 ft | 9 kts | 59° |
| 2026-04-30 20:17 | 59.79984 | 30.30122 | 72 ft | 8 kts | 48° |
| 2026-04-30 20:17 | 59.80016 | 30.30193 | 68 ft | 6 kts | 48° |
| 2026-04-30 20:18 | 59.80044 | 30.30253 | 66 ft | 6 kts | 44° |
| 2026-04-30 20:18 | 59.80082 | 30.30287 | 75 ft | 7 kts | 6° |
| 2026-04-30 20:18 | 59.80117 | 30.30240 | 66 ft | 8 kts | 298° |
| 2026-04-30 20:18 | 59.80149 | 30.30032 | 72 ft | 32 kts | 287° |
| 2026-04-30 20:19 | 59.80299 | 30.29043 | 75 ft | 116 kts | 287° |
| 2026-04-30 20:19 | 59.80481 | 30.27836 | 81 ft | 158 kts | 287° |
| 2026-04-30 20:19 | 59.80946 | 30.24838 | 1021 ft | 167 kts | 288° |
| 2026-04-30 20:19 | 59.81300 | 30.22642 | 1929 ft | 170 kts | 288° |
| 2026-04-30 20:20 | 59.81666 | 30.20332 | 2306 ft | 186 kts | 288° |
| 2026-04-30 20:20 | 59.82055 | 30.17772 | 2624 ft | 203 kts | 287° |
| 2026-04-30 20:20 | 59.82456 | 30.14945 | 3041 ft | 221 kts | 288° |
| 2026-04-30 20:20 | 59.82872 | 30.11981 | 3429 ft | 224 kts | 287° |
| 2026-04-30 20:21 | 59.83291 | 30.09005 | 3501 ft | 223 kts | 288° |
| 2026-04-30 20:21 | 59.83718 | 30.06030 | 3687 ft | 226 kts | 288° |
| 2026-04-30 20:21 | 59.84147 | 30.03021 | 4571 ft | 226 kts | 285° |
| 2026-04-30 20:21 | 59.84106 | 29.99870 | 5348 ft | 236 kts | 254° |
| 2026-04-30 20:22 | 59.83149 | 29.97156 | 6096 ft | 250 kts | 219° |
| 2026-04-30 20:22 | 59.81548 | 29.95754 | 6831 ft | 257 kts | 198° |
| 2026-04-30 20:22 | 59.79842 | 29.94776 | 7573 ft | 261 kts | 197° |
| 2026-04-30 20:22 | 59.78079 | 29.93797 | 8289 ft | 266 kts | 197° |
| 2026-04-30 20:23 | 59.76238 | 29.92963 | 8776 ft | 283 kts | 183° |
| 2026-04-30 20:23 | 59.74250 | 29.93636 | 9185 ft | 299 kts | 153° |
| 2026-04-30 20:23 | 59.72503 | 29.95898 | 9856 ft | 304 kts | 140° |
| 2026-04-30 20:23 | 59.70791 | 29.98432 | 10505 ft | 313 kts | 140° |
| 2026-04-30 20:24 | 59.68993 | 30.01130 | 10743 ft | 335 kts | 140° |
| 2026-04-30 20:24 | 59.67067 | 30.04026 | 10926 ft | 360 kts | 140° |
| 2026-04-30 20:24 | 59.65008 | 30.07101 | 11170 ft | 379 kts | 140° |
| 2026-04-30 20:24 | 59.62900 | 30.10226 | 11720 ft | 387 kts | 140° |
| 2026-04-30 20:25 | 59.58522 | 30.16645 | 12969 ft | 397 kts | 140° |
| 2026-04-30 20:25 | 59.56289 | 30.19906 | 13569 ft | 402 kts | 140° |
| 2026-04-30 20:26 | 59.51750 | 30.26552 | 14751 ft | 410 kts | 139° |
| 2026-04-30 20:26 | 59.47121 | 30.33302 | 15876 ft | 418 kts | 139° |
| 2026-04-30 20:26 | 59.44810 | 30.36675 | 16394 ft | 422 kts | 139° |
| 2026-04-30 20:27 | 59.40044 | 30.43616 | 17420 ft | 430 kts | 139° |
| 2026-04-30 20:27 | 59.35194 | 30.50636 | 18389 ft | 436 kts | 139° |
| 2026-04-30 20:28 | 59.30260 | 30.57747 | 19308 ft | 443 kts | 139° |
| 2026-04-30 20:28 | 59.25253 | 30.64930 | 20207 ft | 449 kts | 139° |
| 2026-04-30 20:29 | 59.20216 | 30.72148 | 21069 ft | 455 kts | 138° |
| 2026-04-30 20:30 | 59.12323 | 30.82775 | 22308 ft | 469 kts | 148° |
| 2026-04-30 20:30 | 59.02913 | 30.88950 | 23424 ft | 485 kts | 160° |
| 2026-04-30 20:31 | 58.93125 | 30.94449 | 24484 ft | 492 kts | 160° |
| 2026-04-30 20:32 | 58.83183 | 31.00016 | 25483 ft | 499 kts | 161° |
| 2026-04-30 20:32 | 58.76348 | 31.02832 | 26072 ft | 508 kts | 173° |
| 2026-04-30 20:33 | 58.72847 | 31.03081 | 26332 ft | 512 kts | 178° |
| 2026-04-30 20:33 | 58.65698 | 31.03351 | 26906 ft | 516 kts | 177° |
| 2026-04-30 20:33 | 58.62102 | 31.03502 | 27190 ft | 518 kts | 177° |
| 2026-04-30 20:34 | 58.54873 | 31.03829 | 27697 ft | 522 kts | 177° |
| 2026-04-30 20:34 | 58.47589 | 31.04166 | 28266 ft | 524 kts | 177° |
| 2026-04-30 20:35 | 58.43951 | 31.04329 | 28622 ft | 523 kts | 177° |
| 2026-04-30 20:35 | 58.40360 | 31.04482 | 28951 ft | 523 kts | 177° |
| 2026-04-30 20:35 | 58.33094 | 31.04775 | 29619 ft | 522 kts | 177° |
| 2026-04-30 20:36 | 58.29466 | 31.04920 | 29969 ft | 521 kts | 177° |
| 2026-04-30 20:36 | 58.25848 | 31.05066 | 30300 ft | 520 kts | 177° |
| 2026-04-30 20:36 | 58.18612 | 31.05375 | 30898 ft | 520 kts | 176° |
| 2026-04-30 20:37 | 58.14993 | 31.05536 | 31200 ft | 520 kts | 177° |
| 2026-04-30 20:37 | 58.11379 | 31.05695 | 31498 ft | 520 kts | 177° |
| 2026-04-30 20:37 | 58.07808 | 31.05847 | 31789 ft | 520 kts | 177° |
| 2026-04-30 20:37 | 58.04189 | 31.05996 | 32088 ft | 520 kts | 177° |
| 2026-04-30 20:38 | 58.00576 | 31.06138 | 32387 ft | 520 kts | 177° |
| 2026-04-30 20:38 | 57.96958 | 31.06281 | 32688 ft | 519 kts | 177° |
| 2026-04-30 20:38 | 57.93361 | 31.06432 | 33093 ft | 516 kts | 177° |
| 2026-04-30 20:39 | 57.86201 | 31.06741 | 33702 ft | 514 kts | 177° |
| 2026-04-30 20:39 | 57.82619 | 31.06894 | 33963 ft | 515 kts | 177° |
| 2026-04-30 20:39 | 57.79084 | 31.07024 | 34212 ft | 516 kts | 179° |
| 2026-04-30 20:40 | 57.71981 | 31.05290 | 34775 ft | 515 kts | 193° |
| 2026-04-30 20:40 | 57.68495 | 31.03753 | 35071 ft | 514 kts | 194° |
| 2026-04-30 20:40 | 57.65009 | 31.02223 | 35192 ft | 515 kts | 193° |
| 2026-04-30 20:41 | 57.54399 | 30.97635 | 35209 ft | 527 kts | 193° |
| 2026-04-30 20:41 | 57.47284 | 30.94597 | 35211 ft | 529 kts | 193° |
| 2026-04-30 20:42 | 57.40117 | 30.91529 | 35250 ft | 529 kts | 193° |
| 2026-04-30 20:43 | 57.29298 | 30.87433 | 35251 ft | 529 kts | 190° |
| 2026-04-30 20:43 | 57.22047 | 30.85081 | 35258 ft | 529 kts | 189° |
| 2026-04-30 20:44 | 57.11243 | 30.81445 | 35251 ft | 528 kts | 190° |
| 2026-04-30 20:45 | 56.96803 | 30.76402 | 35241 ft | 528 kts | 190° |
| 2026-04-30 20:45 | 56.89636 | 30.73935 | 35245 ft | 527 kts | 190° |
| 2026-04-30 20:46 | 56.75204 | 30.69233 | 35249 ft | 527 kts | 187° |
| 2026-04-30 20:47 | 56.65539 | 30.67022 | 35248 ft | 526 kts | 186° |
| 2026-04-30 20:48 | 56.53459 | 30.64374 | 35256 ft | 526 kts | 186° |
| 2026-04-30 20:48 | 56.47430 | 30.62933 | 35272 ft | 526 kts | 187° |
| 2026-04-30 20:49 | 56.40182 | 30.61202 | 35266 ft | 525 kts | 187° |
| 2026-04-30 20:50 | 56.29307 | 30.58812 | 35264 ft | 524 kts | 185° |
| 2026-04-30 20:50 | 56.22055 | 30.57417 | 35266 ft | 524 kts | 185° |
| 2026-04-30 20:51 | 56.14844 | 30.56017 | 35262 ft | 525 kts | 185° |
| 2026-04-30 20:51 | 56.03944 | 30.53810 | 35266 ft | 524 kts | 185° |
| 2026-04-30 20:52 | 55.96693 | 30.52311 | 35277 ft | 525 kts | 185° |
| 2026-04-30 20:53 | 55.85826 | 30.50128 | 35273 ft | 523 kts | 185° |
| 2026-04-30 20:53 | 55.78643 | 30.48704 | 35265 ft | 522 kts | 185° |
| 2026-04-30 20:54 | 55.67826 | 30.46456 | 35268 ft | 521 kts | 186° |
| 2026-04-30 20:55 | 55.57020 | 30.44189 | 35254 ft | 522 kts | 186° |
| 2026-04-30 20:55 | 55.49940 | 30.41892 | 35250 ft | 521 kts | 199° |
| 2026-04-30 20:56 | 55.40207 | 30.33484 | 35257 ft | 520 kts | 209° |
| 2026-04-30 20:57 | 55.30603 | 30.24569 | 35261 ft | 520 kts | 209° |
| 2026-04-30 20:57 | 55.24258 | 30.18719 | 35252 ft | 503 kts | 209° |
| 2026-04-30 20:58 | 55.18161 | 30.13093 | 34432 ft | 500 kts | 209° |
| 2026-04-30 20:58 | 55.15079 | 30.10255 | 33789 ft | 499 kts | 209° |
| 2026-04-30 20:58 | 55.12007 | 30.07431 | 33164 ft | 498 kts | 209° |
| 2026-04-30 20:58 | 55.08954 | 30.04628 | 32534 ft | 496 kts | 209° |
| 2026-04-30 20:59 | 55.02874 | 29.99062 | 31289 ft | 491 kts | 209° |
| 2026-04-30 20:59 | 54.99856 | 29.96305 | 30689 ft | 488 kts | 209° |
| 2026-04-30 21:00 | 54.93906 | 29.90905 | 29537 ft | 482 kts | 208° |
| 2026-04-30 21:00 | 54.88011 | 29.85571 | 28415 ft | 473 kts | 208° |
| 2026-04-30 21:01 | 54.82210 | 29.80325 | 27274 ft | 467 kts | 209° |
| 2026-04-30 21:01 | 54.79348 | 29.77737 | 26775 ft | 463 kts | 209° |
| 2026-04-30 21:01 | 54.73684 | 29.72658 | 25697 ft | 456 kts | 209° |
| 2026-04-30 21:02 | 54.70926 | 29.70190 | 25243 ft | 450 kts | 208° |
| 2026-04-30 21:02 | 54.68148 | 29.67711 | 24724 ft | 446 kts | 209° |
| 2026-04-30 21:02 | 54.65398 | 29.65262 | 24174 ft | 443 kts | 208° |
| 2026-04-30 21:02 | 54.62674 | 29.62843 | 23672 ft | 439 kts | 209° |
| 2026-04-30 21:03 | 54.59970 | 29.60438 | 23167 ft | 435 kts | 209° |
| 2026-04-30 21:03 | 54.57288 | 29.58045 | 22678 ft | 433 kts | 209° |
| 2026-04-30 21:03 | 54.54625 | 29.55670 | 22176 ft | 430 kts | 209° |
| 2026-04-30 21:03 | 54.51974 | 29.53320 | 21682 ft | 427 kts | 209° |
| 2026-04-30 21:04 | 54.49380 | 29.51035 | 21204 ft | 423 kts | 208° |
| 2026-04-30 21:04 | 54.46771 | 29.48740 | 20760 ft | 419 kts | 208° |
| 2026-04-30 21:04 | 54.41614 | 29.44208 | 19817 ft | 414 kts | 208° |
| 2026-04-30 21:05 | 54.39064 | 29.41973 | 19338 ft | 412 kts | 208° |
| 2026-04-30 21:05 | 54.36531 | 29.39753 | 18982 ft | 406 kts | 208° |
| 2026-04-30 21:05 | 54.34009 | 29.37550 | 18490 ft | 405 kts | 208° |
| 2026-04-30 21:05 | 54.31511 | 29.35365 | 17965 ft | 404 kts | 208° |
| 2026-04-30 21:06 | 54.29042 | 29.33208 | 17510 ft | 394 kts | 208° |
| 2026-04-30 21:06 | 54.26664 | 29.31134 | 17006 ft | 382 kts | 208° |
| 2026-04-30 21:06 | 54.24338 | 29.29110 | 16596 ft | 369 kts | 208° |
| 2026-04-30 21:06 | 54.22051 | 29.27120 | 16169 ft | 369 kts | 208° |
| 2026-04-30 21:07 | 54.19768 | 29.25130 | 15765 ft | 369 kts | 208° |
| 2026-04-30 21:07 | 54.17480 | 29.23142 | 15339 ft | 369 kts | 208° |
| 2026-04-30 21:07 | 54.15282 | 29.20926 | 14923 ft | 365 kts | 219° |
| 2026-04-30 21:07 | 54.13425 | 29.18046 | 14522 ft | 359 kts | 232° |
| 2026-04-30 21:08 | 54.12001 | 29.14656 | 14104 ft | 343 kts | 246° |
| 2026-04-30 21:08 | 54.10994 | 29.11086 | 13736 ft | 328 kts | 250° |
| 2026-04-30 21:08 | 54.10057 | 29.07598 | 13355 ft | 328 kts | 250° |
| 2026-04-30 21:08 | 54.09110 | 29.04075 | 12952 ft | 326 kts | 250° |
| 2026-04-30 21:09 | 54.08182 | 29.00630 | 12593 ft | 318 kts | 250° |
| 2026-04-30 21:09 | 54.07249 | 28.97218 | 12226 ft | 317 kts | 249° |
| 2026-04-30 21:09 | 54.06307 | 28.93824 | 11850 ft | 317 kts | 249° |
| 2026-04-30 21:09 | 54.05366 | 28.90436 | 11466 ft | 316 kts | 249° |
| 2026-04-30 21:10 | 54.04438 | 28.87060 | 11088 ft | 312 kts | 250° |
| 2026-04-30 21:10 | 54.03515 | 28.83707 | 10701 ft | 311 kts | 249° |
| 2026-04-30 21:10 | 54.02617 | 28.80411 | 10339 ft | 310 kts | 248° |
| 2026-04-30 21:10 | 54.01724 | 28.77131 | 10197 ft | 298 kts | 248° |
| 2026-04-30 21:11 | 54.00844 | 28.73951 | 9961 ft | 295 kts | 246° |
| 2026-04-30 21:11 | 53.99978 | 28.70876 | 9593 ft | 287 kts | 248° |
| 2026-04-30 21:11 | 53.99127 | 28.67791 | 9224 ft | 288 kts | 246° |
| 2026-04-30 21:11 | 53.98284 | 28.64727 | 8883 ft | 285 kts | 246° |
| 2026-04-30 21:12 | 53.97452 | 28.61715 | 8497 ft | 279 kts | 246° |
| 2026-04-30 21:12 | 53.96629 | 28.58743 | 8141 ft | 277 kts | 246° |
| 2026-04-30 21:12 | 53.95819 | 28.55838 | 7782 ft | 275 kts | 246° |
| 2026-04-30 21:12 | 53.94989 | 28.52923 | 7489 ft | 273 kts | 242° |
| 2026-04-30 21:13 | 53.93772 | 28.50454 | 7370 ft | 277 kts | 221° |
| 2026-04-30 21:13 | 53.92282 | 28.48396 | 7244 ft | 275 kts | 220° |
| 2026-04-30 21:13 | 53.90793 | 28.46353 | 6969 ft | 277 kts | 220° |
| 2026-04-30 21:13 | 53.89295 | 28.44292 | 6564 ft | 276 kts | 221° |
| 2026-04-30 21:14 | 53.87805 | 28.42241 | 6071 ft | 277 kts | 220° |
| 2026-04-30 21:14 | 53.86344 | 28.40255 | 5571 ft | 271 kts | 220° |
| 2026-04-30 21:14 | 53.84879 | 28.38266 | 4932 ft | 267 kts | 221° |
| 2026-04-30 21:14 | 53.83443 | 28.36323 | 4590 ft | 259 kts | 221° |
| 2026-04-30 21:15 | 53.82056 | 28.34438 | 4442 ft | 250 kts | 220° |
| 2026-04-30 21:15 | 53.80736 | 28.32643 | 4317 ft | 238 kts | 221° |
| 2026-04-30 21:15 | 53.79499 | 28.30881 | 4216 ft | 228 kts | 230° |
| 2026-04-30 21:15 | 53.78623 | 28.28734 | 4118 ft | 217 kts | 248° |
| 2026-04-30 21:16 | 53.78206 | 28.26357 | 4021 ft | 206 kts | 265° |
| 2026-04-30 21:16 | 53.78219 | 28.23990 | 3807 ft | 201 kts | 282° |
| 2026-04-30 21:16 | 53.78615 | 28.21810 | 3461 ft | 192 kts | 297° |
| 2026-04-30 21:16 | 53.79335 | 28.19956 | 3019 ft | 184 kts | 313° |
| 2026-04-30 21:17 | 53.80244 | 28.18536 | 2732 ft | 171 kts | 320° |
| 2026-04-30 21:17 | 53.81102 | 28.17268 | 2498 ft | 157 kts | 320° |
| 2026-04-30 21:17 | 53.81897 | 28.16096 | 2309 ft | 144 kts | 320° |
| 2026-04-30 21:17 | 53.82626 | 28.15024 | 2111 ft | 135 kts | 321° |
| 2026-04-30 21:18 | 53.83333 | 28.13985 | 1933 ft | 135 kts | 320° |
| 2026-04-30 21:18 | 53.84029 | 28.12934 | 1774 ft | 133 kts | 320° |
| 2026-04-30 21:18 | 53.84716 | 28.11917 | 1608 ft | 132 kts | 321° |
| 2026-04-30 21:18 | 53.85415 | 28.10885 | 1414 ft | 133 kts | 320° |
| 2026-04-30 21:19 | 53.86112 | 28.09855 | 1255 ft | 134 kts | 321° |
| 2026-04-30 21:19 | 53.86809 | 28.08819 | 1054 ft | 134 kts | 320° |
| 2026-04-30 21:19 | 53.87512 | 28.07781 | 869 ft | 134 kts | 320° |
| 2026-04-30 21:19 | 53.88213 | 28.06743 | 656 ft | 133 kts | 320° |
| 2026-04-30 21:20 | 53.88835 | 28.05833 | 634 ft | 97 kts | 319° |
| 2026-04-30 21:20 | 53.89216 | 28.05268 | 634 ft | 51 kts | 319° |
| 2026-04-30 21:20 | 53.89462 | 28.04903 | 634 ft | 45 kts | 319° |
| 2026-04-30 21:20 | 53.89662 | 28.04603 | 634 ft | 18 kts | 316° |
| 2026-04-30 21:21 | 53.89724 | 28.04430 | 635 ft | 18 kts | 294° |
| 2026-04-30 21:21 | 53.89767 | 28.04252 | 635 ft | 1 kts | 289° |
| 2026-04-30 21:21 | 53.89771 | 28.04199 | 635 ft | 12 kts | 266° |
| 2026-04-30 21:22 | 53.89706 | 28.04142 | 641 ft | 11 kts | 158° |
| 2026-04-30 21:22 | 53.89510 | 28.04424 | 644 ft | 15 kts | 139° |
| 2026-04-30 21:23 | 53.89421 | 28.04555 | 637 ft | 20 kts | 139° |
| 2026-04-30 21:23 | 53.89311 | 28.04720 | 638 ft | 22 kts | 138° |
| 2026-04-30 21:23 | 53.89159 | 28.04790 | 636 ft | 12 kts | 227° |
| 2026-04-30 21:24 | 53.89075 | 28.04626 | 635 ft | 22 kts | 229° |
| 2026-04-30 21:24 | 53.88973 | 28.04425 | 635 ft | 24 kts | 228° |
| 2026-04-30 21:24 | 53.88861 | 28.04209 | 635 ft | 24 kts | 229° |
| 2026-04-30 21:24 | 53.88820 | 28.04035 | 635 ft | 11 kts | 300° |
| 2026-04-30 21:25 | 53.88898 | 28.03781 | 635 ft | 14 kts | 297° |
| 2026-04-30 21:25 | 53.88887 | 28.03669 | 639 ft | 9 kts | 240° |
| 2026-04-30 21:25 | 53.88905 | 28.03590 | 635 ft | 7 kts | 313° |
| 2026-04-30 21:26 | 53.88917 | 28.03570 | 635 ft | 0 kts | 315° |